This is the latest recevied weather packets stored in our database for station/object LRBC. If no packets are shown the sender has not sent any weather packets the latest 10 day(s).
| Time | Temp. | Humidity | Pressure | Rain* | Wind** | Luminosity | Snow |
|---|---|---|---|---|---|---|---|
| 1777889935 | 22.78° C | 33% | 1016 hPa | - | - | - | - |
| 1777889027 | 22.78° C | 33% | 1016 hPa | - | - | - | - |
| 1777888127 | 22.78° C | 36% | 1016 hPa | - | - | - | - |
| 1777887227 | 22.78° C | 36% | 1016 hPa | - | - | - | - |
| 1777886328 | 22.22° C | 36% | 1016 hPa | - | - | - | - |
| 1777885427 | 22.22° C | 36% | 1016 hPa | - | - | - | - |
| 1777884557 | 21.11° C | 40% | 1016 hPa | - | - | - | - |
| 1777883628 | 21.11° C | 40% | 1016 hPa | - | - | - | - |
| 1777882727 | 20° C | 43% | 1016 hPa | - | - | - | - |
| 1777881827 | 20° C | 43% | 1016 hPa | - | - | - | - |
| 1777880929 | 17.78° C | 46% | 1016 hPa | - | - | - | - |
| 1777880027 | 17.78° C | 46% | 1016 hPa | - | - | - | - |
| 1777879128 | 17.22° C | 52% | 1016 hPa | - | - | - | - |
| 1777878229 | 17.22° C | 52% | 1016 hPa | - | - | - | - |
| 1777877327 | 15° C | 55% | 1016 hPa | - | - | - | - |
| 1777876428 | 15° C | 55% | 1016 hPa | - | - | - | - |
| 1777875529 | 13.89° C | 55% | 1016 hPa | - | - | - | - |
| 1777874628 | 13.89° C | 55% | 1016 hPa | - | - | - | - |
| 1777873728 | 12.78° C | 59% | 1016 hPa | - | - | - | - |
| 1777872829 | 12.78° C | 59% | 1016 hPa | - | - | - | - |
| 1777871928 | 10° C | 67% | 1016 hPa | - | - | - | - |
| 1777871037 | 10° C | 67% | 1016 hPa | - | - | - | - |
| 1777870128 | 7.22° C | 81% | 1016 hPa | - | - | - | - |
| 1777869227 | 7.22° C | 81% | 1016 hPa | - | - | - | - |
| 1777868328 | 5° C | 81% | 1017 hPa | - | - | - | - |
* Rain since midnight (hover to see other rain measurements)
** Current wind speed in m/s (hover to see current wind gust speed)